Skip Navigation Links Skip Navigation Links

Current Weather

Lee Gilmer Memorial, Gainesville, Ga.

For information only: do not use for flight planning or navigation.
Latest weather
Observation time Tuesday, January 26, 2021 6:53 PM EST
Local time Tuesday, January 26, 2021 7:15 PM EST
Flight conditions Visual Meteorological Conditions
Winds
Wind direction West-Southwest (250°)
Wind speed 6 mph
Visibility 10 mi.
Sky condition
Ceiling unlimited
Sky clear
Temperature 58°F
Dewpoint 43°F
Altimeter 29.95 in.Hg
Pressure change last 3 hours-0.04 in.Hg
Pressure rising more quickly
Derived measurements
Relative humidity 57%
Density altitude 1308 ft.
Sea-level pressure 29.93 in.Hg
Climate data
Temperature minimum, last 6 hours 57°F
Temperature maximum, last 6 hours 69°F
Remarks
Fully automated report.
Automated weather observing station with precipitation discriminator.
METAR KGVL 262353Z AUTO 25005KT 10SM CLR 14/06 A2995 RMK AO2 SLP136 T01440061 10206 20139 53015

Settings

Location code

InnerDrive.Weather 4.0.6770.0 Release CLR 4.0.30319.42000
Copyright ©2018 Inner Drive Technology. All rights reserved. Portions Copyright ©1986-2018 David Braverman.

Find weather

Site navigation


Skip Navigation Links

Place info

Page info

PayPal - The safer, easier way to pay online!

Return home.

Copyright ©2021 Inner Drive Technology. Purveyors of fine, hand-crafted computer software. Page printed 2021-01-27T00:15:53 UTC.